Detroit, Oregon
Current Conditions -  °F | °C
As of 1:08 AM on Monday 22 Dec 2014 (Local Time) from KSLE Reporting Station
Haze Haze  
Wind Chill: 50°   Ceiling: 1800
Heat Index: 50°   Visibility: 5mi
Dew Point: 49°   Wind: 3mph
Humidity: 96%   Direction: 150°SSE
Pressure: 30.21"   Gusts: NA
Location:  44.73°N, 122.15°W
Report Text: KSLE 220908Z AUTO 15003KT 5SM BR FEW006 BKN018 OVC027 10/09 A3021 RMK AO2 T01000094
Loading
Personal Weather Stations






























Interactive Weather Map New forecast layout! Learn more

10-Day Weather Forecast

Advertisements
Track Severe Weather on mobile